Time;durP1;ratioP1;P1;durP2;ratioP2;P2;SDS_P1;SDS_P2;PMS_P1;PMS_P2;Temp;Humidity;BMP_temperature;BMP_pressure;BME280_temperature;BME280_humidity;BME280_pressure;Samples;Min_cycle;Max_cycle;Signal;HPM_P1;HPM_P2
2023/06/07 00:00:13;;;;;;;11.95;7.47;;;12.20;99.90;;;;;;5092337;28;20038;-72
2023/06/07 00:02:41;;;;;;;9.65;7.28;;;12.20;99.90;;;;;;5080845;28;20056;-71
2023/06/07 00:05:07;;;;;;;10.63;7.45;;;12.20;99.90;;;;;;5086341;28;20024;-72
2023/06/07 00:07:35;;;;;;;10.52;7.40;;;12.20;99.90;;;;;;5086399;28;20752;-72
2023/06/07 00:10:04;;;;;;;12.38;7.72;;;12.20;99.90;;;;;;5090087;28;20042;-73
2023/06/07 00:12:29;;;;;;;12.05;8.02;;;12.20;99.90;;;;;;5080364;28;20028;-73
2023/06/07 00:14:55;;;;;;;9.95;7.50;;;12.20;99.90;;;;;;5091377;28;20096;-74
2023/06/07 00:17:22;;;;;;;11.13;7.95;;;12.10;99.90;;;;;;5074820;28;20041;-73
2023/06/07 00:19:48;;;;;;;12.02;7.82;;;12.00;99.90;;;;;;5120031;27;20054;-72
2023/06/07 00:22:14;;;;;;;11.95;7.50;;;11.90;99.90;;;;;;5087487;28;20032;-72
2023/06/07 00:24:40;;;;;;;12.73;7.85;;;12.00;99.90;;;;;;5068538;28;20116;-72
2023/06/07 00:27:05;;;;;;;11.75;7.53;;;12.00;99.90;;;;;;5067906;28;20123;-74
2023/06/07 00:29:31;;;;;;;12.95;8.00;;;11.90;99.90;;;;;;5082019;28;20086;-73
2023/06/07 00:31:57;;;;;;;10.50;7.20;;;11.70;99.90;;;;;;5081907;28;20031;-72
2023/06/07 00:34:22;;;;;;;12.77;8.45;;;11.60;99.90;;;;;;5089590;28;20032;-73
2023/06/07 00:36:48;;;;;;;11.43;8.60;;;11.70;99.90;;;;;;5091152;28;20028;-72
2023/06/07 00:39:13;;;;;;;15.52;8.57;;;11.70;99.90;;;;;;5092499;28;20407;-72
2023/06/07 00:41:39;;;;;;;12.18;7.60;;;11.70;99.90;;;;;;5100471;28;20167;-73
2023/06/07 00:44:05;;;;;;;12.95;7.75;;;11.70;99.90;;;;;;5079207;28;20036;-73
2023/06/07 00:46:31;;;;;;;11.48;8.27;;;11.50;99.90;;;;;;5093696;28;20754;-76
2023/06/07 00:48:57;;;;;;;9.80;7.63;;;11.60;99.90;;;;;;5080028;28;20028;-72
2023/06/07 00:51:25;;;;;;;11.80;8.38;;;11.60;99.90;;;;;;5112251;28;20027;-72
2023/06/07 00:53:52;;;;;;;15.13;8.73;;;11.60;99.90;;;;;;5095540;28;20055;-73
2023/06/07 00:56:19;;;;;;;12.50;7.80;;;11.60;99.90;;;;;;5090390;28;20144;-72
2023/06/07 00:58:46;;;;;;;10.85;8.05;;;11.50;99.90;;;;;;5089964;28;20425;-73
2023/06/07 01:01:12;;;;;;;11.68;8.07;;;11.40;99.90;;;;;;5079894;28;20107;-72
2023/06/07 01:03:38;;;;;;;12.75;8.20;;;11.30;99.90;;;;;;5087301;28;20039;-73
2023/06/07 01:06:05;;;;;;;13.38;8.45;;;11.30;99.90;;;;;;5084585;28;20033;-72
2023/06/07 01:08:32;;;;;;;13.48;8.52;;;11.30;99.90;;;;;;5088119;28;20032;-76
2023/06/07 01:10:59;;;;;;;12.57;8.60;;;11.40;99.90;;;;;;5091317;28;20024;-73
2023/06/07 01:13:25;;;;;;;12.20;7.90;;;11.50;99.90;;;;;;5096646;28;20108;-73
2023/06/07 01:15:51;;;;;;;12.30;8.48;;;11.60;99.90;;;;;;5095867;28;20105;-72
2023/06/07 01:18:18;;;;;;;12.40;8.05;;;11.60;99.90;;;;;;5084230;28;20035;-72
2023/06/07 01:20:50;;;;;;;12.73;8.93;;;11.60;99.90;;;;;;5070056;28;20484;-72
2023/06/07 01:23:28;;;;;;;12.93;8.25;;;11.40;99.90;;;;;;5081373;28;20039;-74
2023/06/07 01:25:57;;;;;;;13.27;8.90;;;11.40;99.90;;;;;;5087122;28;20428;-72
2023/06/07 01:28:24;;;;;;;11.55;8.18;;;11.40;99.90;;;;;;5073402;28;20495;-73
2023/06/07 01:30:52;;;;;;;13.40;9.05;;;11.20;99.90;;;;;;5087571;28;20080;-73
2023/06/07 01:33:19;;;;;;;13.30;8.23;;;11.10;99.90;;;;;;5083242;28;20032;-71
2023/06/07 01:35:45;;;;;;;13.30;8.60;;;11.00;99.90;;;;;;5102546;28;20078;-72
2023/06/07 01:38:12;;;;;;;15.45;8.88;;;11.00;99.90;;;;;;5091456;28;20035;-73
2023/06/07 01:40:39;;;;;;;13.65;8.98;;;11.00;99.90;;;;;;5069748;28;20029;-72
2023/06/07 01:43:05;;;;;;;13.30;8.73;;;11.00;99.90;;;;;;5078183;28;20031;-72
2023/06/07 01:45:32;;;;;;;13.05;9.23;;;11.00;99.90;;;;;;5097467;28;20048;-77
2023/06/07 01:47:58;;;;;;;13.77;9.25;;;11.00;99.90;;;;;;5084965;28;20029;-72
2023/06/07 01:50:24;;;;;;;13.35;9.32;;;11.10;99.90;;;;;;5070320;28;20028;-73
2023/06/07 01:52:49;;;;;;;16.40;9.02;;;11.10;99.90;;;;;;5082650;28;20032;-72
2023/06/07 01:55:16;;;;;;;12.10;8.30;;;11.00;99.90;;;;;;5089897;28;20029;-73
2023/06/07 01:57:50;;;;;;;12.45;8.45;;;11.00;99.90;;;;;;5089391;28;20028;-72
2023/06/07 02:00:40;;;;;;;13.90;8.88;;;11.10;99.90;;;;;;5088745;28;20456;-74
2023/06/07 02:03:09;;;;;;;13.27;8.40;;;11.00;99.90;;;;;;5095546;28;20459;-73
2023/06/07 02:05:38;;;;;;;12.43;8.50;;;10.90;99.90;;;;;;5104430;28;20104;-76
2023/06/07 02:08:14;;;;;;;14.93;8.50;;;10.90;99.90;;;;;;5090308;28;20025;-72
2023/06/07 02:10:42;;;;;;;11.55;8.32;;;10.80;99.90;;;;;;5098926;28;20039;-72
2023/06/07 02:13:08;;;;;;;13.25;8.55;;;10.90;99.90;;;;;;5088878;28;20086;-73
2023/06/07 02:15:34;;;;;;;12.80;8.95;;;10.90;99.90;;;;;;5083757;28;20133;-77
2023/06/07 02:18:01;;;;;;;13.50;8.45;;;10.90;99.90;;;;;;5084154;28;20150;-73
2023/06/07 02:20:28;;;;;;;13.70;8.55;;;10.90;99.90;;;;;;5069351;28;20389;-73
2023/06/07 02:22:58;;;;;;;10.82;8.23;;;10.90;99.90;;;;;;5084296;28;20441;-74
2023/06/07 02:25:24;;;;;;;9.60;6.40;;;10.90;99.90;;;;;;5090598;28;20032;-74
2023/06/07 02:27:51;;;;;;;13.55;8.73;;;10.80;99.90;;;;;;5082035;28;20066;-72
2023/06/07 02:30:17;;;;;;;13.93;8.48;;;10.70;99.90;;;;;;5096471;28;20036;-73
2023/06/07 02:32:48;;;;;;;12.35;8.43;;;10.60;99.90;;;;;;5103885;28;20511;-73
2023/06/07 02:35:17;;;;;;;14.68;8.85;;;10.60;99.90;;;;;;5088918;28;20074;-72
2023/06/07 02:37:44;;;;;;;10.48;7.82;;;10.70;99.90;;;;;;5088740;28;20488;-73
2023/06/07 02:40:10;;;;;;;13.38;8.65;;;10.70;99.90;;;;;;5095916;28;20063;-72
2023/06/07 02:42:36;;;;;;;10.55;7.80;;;10.60;99.90;;;;;;5108204;28;20124;-77
2023/06/07 02:45:03;;;;;;;12.07;8.68;;;10.60;99.90;;;;;;5109406;28;20060;-72
2023/06/07 02:47:30;;;;;;;12.63;8.50;;;10.50;99.90;;;;;;5101189;27;20078;-72
2023/06/07 02:49:56;;;;;;;12.48;8.00;;;10.40;99.90;;;;;;5068513;28;20055;-74
2023/06/07 02:52:22;;;;;;;13.40;8.50;;;10.40;99.90;;;;;;5069536;28;20103;-73
2023/06/07 02:54:48;;;;;;;14.55;8.25;;;10.30;99.90;;;;;;5067992;28;20112;-72
2023/06/07 02:57:14;;;;;;;11.07;7.97;;;10.40;99.90;;;;;;5090727;28;20122;-72
2023/06/07 02:59:40;;;;;;;14.25;8.70;;;10.40;99.90;;;;;;5087026;28;20484;-72
2023/06/07 03:02:06;;;;;;;13.07;8.50;;;10.30;99.90;;;;;;5086387;28;20032;-73
2023/06/07 03:04:32;;;;;;;11.75;8.35;;;10.20;99.90;;;;;;5088202;28;20408;-73
2023/06/07 03:06:58;;;;;;;12.40;8.18;;;10.20;99.90;;;;;;5087262;28;20052;-73
2023/06/07 03:09:24;;;;;;;12.43;8.50;;;10.10;99.90;;;;;;5090289;28;20070;-72
2023/06/07 03:11:50;;;;;;;12.65;8.52;;;10.10;99.90;;;;;;5099584;28;20714;-72
2023/06/07 03:14:18;;;;;;;13.02;8.52;;;10.00;99.90;;;;;;5075358;28;20066;-73
2023/06/07 03:16:45;;;;;;;13.30;8.13;;;10.00;99.90;;;;;;5079600;28;20063;-72
2023/06/07 03:19:11;;;;;;;13.82;8.93;;;10.10;99.90;;;;;;5073541;28;20628;-73
2023/06/07 03:21:40;;;;;;;13.10;8.88;;;10.00;99.90;;;;;;5109105;28;20453;-77
2023/06/07 03:24:06;;;;;;;14.48;8.48;;;10.00;99.90;;;;;;5086681;28;20462;-74
2023/06/07 03:26:32;;;;;;;13.25;8.82;;;10.00;99.90;;;;;;5076618;28;20036;-73
2023/06/07 03:28:57;;;;;;;14.48;8.48;;;10.10;99.90;;;;;;5068005;28;20031;-74
2023/06/07 03:31:25;;;;;;;12.10;8.48;;;10.20;99.90;;;;;;5089762;28;20028;-76
2023/06/07 03:33:50;;;;;;;12.20;8.27;;;10.30;99.90;;;;;;5079958;28;20067;-76
2023/06/07 03:36:20;;;;;;;13.63;9.30;;;10.30;99.90;;;;;;5080293;28;20036;-76
2023/06/07 03:38:46;;;;;;;13.13;8.20;;;10.30;99.90;;;;;;5067681;28;20037;-76
2023/06/07 03:41:12;;;;;;;14.75;8.85;;;10.30;99.90;;;;;;5075724;28;20575;-74
2023/06/07 03:43:38;;;;;;;12.35;8.95;;;10.30;99.90;;;;;;5082147;28;20032;-78
2023/06/07 03:46:03;;;;;;;11.50;8.73;;;10.30;99.90;;;;;;5095707;28;20062;-73
2023/06/07 03:48:29;;;;;;;15.25;8.93;;;10.10;99.90;;;;;;5095877;28;20028;-75
2023/06/07 03:50:55;;;;;;;14.35;8.90;;;10.00;99.90;;;;;;5078996;28;20032;-73
2023/06/07 03:53:20;;;;;;;13.25;8.70;;;9.90;99.90;;;;;;5088715;28;20035;-73
2023/06/07 03:55:48;;;;;;;13.13;9.05;;;9.90;99.90;;;;;;5083671;28;20544;-74
2023/06/07 03:58:18;;;;;;;13.88;9.05;;;10.00;99.90;;;;;;5073953;28;20457;-72
2023/06/07 04:00:44;;;;;;;15.15;9.10;;;9.80;99.90;;;;;;5091657;28;20076;-75
2023/06/07 04:03:10;;;;;;;15.90;9.52;;;9.80;99.90;;;;;;5085756;28;20032;-72
2023/06/07 04:05:38;;;;;;;13.85;9.07;;;9.70;99.90;;;;;;5081952;28;20036;-73
2023/06/07 04:08:05;;;;;;;16.35;9.13;;;9.70;99.90;;;;;;5091288;28;20124;-73
2023/06/07 04:10:31;;;;;;;13.38;9.00;;;9.70;99.90;;;;;;5078339;28;20032;-71
2023/06/07 04:12:56;;;;;;;15.23;9.98;;;9.70;99.90;;;;;;5091647;28;20430;-69
2023/06/07 04:15:22;;;;;;;14.20;9.05;;;9.80;99.90;;;;;;5100815;28;20043;-70
2023/06/07 04:17:48;;;;;;;14.18;9.10;;;9.90;99.90;;;;;;5106715;28;20059;-69
2023/06/07 04:20:14;;;;;;;14.35;9.70;;;10.00;99.90;;;;;;5073893;28;20485;-71
2023/06/07 04:22:41;;;;;;;15.38;10.05;;;10.10;99.90;;;;;;5086082;28;20077;-73
2023/06/07 04:25:07;;;;;;;14.02;9.55;;;10.20;99.90;;;;;;5092288;28;20046;-71
2023/06/07 04:27:34;;;;;;;16.13;8.95;;;10.30;99.90;;;;;;5090557;28;20449;-70
2023/06/07 04:30:02;;;;;;;15.02;9.80;;;10.30;99.90;;;;;;5090038;28;20488;-72
2023/06/07 04:32:33;;;;;;;13.73;8.60;;;10.50;99.90;;;;;;5092310;28;20119;-75
2023/06/07 04:34:59;;;;;;;13.15;8.93;;;10.70;99.90;;;;;;5086169;28;20098;-70
2023/06/07 04:37:25;;;;;;;14.13;8.88;;;10.90;99.90;;;;;;5080662;28;20068;-72
2023/06/07 04:39:51;;;;;;;14.32;9.18;;;11.00;99.90;;;;;;5090710;28;20074;-72
2023/06/07 04:42:17;;;;;;;15.27;9.13;;;11.10;99.90;;;;;;5091254;28;20081;-71
2023/06/07 04:44:44;;;;;;;14.13;9.30;;;11.20;99.90;;;;;;5094801;28;20032;-73
2023/06/07 04:47:10;;;;;;;14.63;9.68;;;11.20;99.90;;;;;;5112371;27;20036;-71
2023/06/07 04:49:38;;;;;;;15.05;9.90;;;11.20;99.90;;;;;;5090573;28;20028;-73
2023/06/07 04:52:05;;;;;;;14.75;8.85;;;11.30;99.90;;;;;;5091030;28;20020;-71
2023/06/07 04:54:32;;;;;;;11.77;8.85;;;11.30;99.90;;;;;;5091819;28;20034;-71
2023/06/07 04:56:58;;;;;;;14.32;9.05;;;11.20;99.90;;;;;;5087604;28;20105;-74
2023/06/07 04:59:25;;;;;;;12.73;8.65;;;11.40;99.90;;;;;;5096489;28;20030;-74
2023/06/07 05:01:51;;;;;;;14.20;9.40;;;11.70;99.90;;;;;;5100402;28;20036;-71
2023/06/07 05:04:18;;;;;;;15.98;9.18;;;11.90;99.90;;;;;;5090421;28;20032;-71
2023/06/07 05:06:44;;;;;;;13.00;8.73;;;11.90;99.90;;;;;;5095737;28;20118;-71
2023/06/07 05:09:10;;;;;;;13.40;9.18;;;11.80;99.90;;;;;;5090886;28;20115;-70
2023/06/07 05:11:36;;;;;;;13.70;8.90;;;11.80;99.90;;;;;;5090235;28;20025;-71
2023/06/07 05:14:02;;;;;;;16.33;9.80;;;12.00;99.90;;;;;;5090568;28;20093;-71
2023/06/07 05:16:27;;;;;;;14.80;9.30;;;12.00;99.90;;;;;;5108259;28;20475;-71
2023/06/07 05:18:56;;;;;;;14.30;9.43;;;12.00;99.90;;;;;;5098190;28;20052;-71
2023/06/07 05:21:22;;;;;;;15.82;10.27;;;12.20;99.90;;;;;;5082069;28;20448;-70
2023/06/07 05:23:47;;;;;;;15.32;10.15;;;12.30;99.90;;;;;;5070156;28;20040;-73
2023/06/07 05:26:13;;;;;;;15.75;10.23;;;12.50;99.90;;;;;;5103103;27;20037;-71
2023/06/07 05:28:39;;;;;;;14.95;10.68;;;12.60;99.90;;;;;;5091169;28;20039;-70
2023/06/07 05:31:04;;;;;;;14.90;10.73;;;12.70;99.90;;;;;;5088897;28;20256;-69
2023/06/07 05:33:30;;;;;;;16.95;10.88;;;12.80;99.90;;;;;;5078741;28;20032;-72
2023/06/07 05:35:56;;;;;;;17.45;10.82;;;12.90;99.90;;;;;;5075727;28;20411;-72
2023/06/07 05:38:22;;;;;;;17.58;11.27;;;13.10;99.90;;;;;;5095507;27;20382;-71
2023/06/07 05:40:48;;;;;;;15.80;10.85;;;13.20;99.90;;;;;;5069979;28;20035;-74
2023/06/07 05:43:14;;;;;;;14.95;10.52;;;13.30;99.90;;;;;;5074655;28;20032;-72
2023/06/07 05:45:41;;;;;;;19.33;11.20;;;13.30;99.90;;;;;;5090706;28;20064;-71
2023/06/07 05:48:07;;;;;;;15.68;10.70;;;13.40;99.90;;;;;;5091090;28;20586;-73
2023/06/07 05:50:33;;;;;;;14.88;11.00;;;13.50;99.90;;;;;;5070587;28;20037;-74
2023/06/07 05:52:59;;;;;;;16.02;11.50;;;13.60;99.90;;;;;;5087733;28;20031;-75
2023/06/07 05:55:26;;;;;;;16.13;11.90;;;13.70;99.90;;;;;;5090556;28;20125;-78
2023/06/07 05:57:52;;;;;;;27.17;12.48;;;13.70;99.90;;;;;;5079481;28;20040;-77
2023/06/07 06:00:18;;;;;;;20.33;12.77;;;13.80;99.90;;;;;;5070462;28;20590;-70
2023/06/07 06:02:47;;;;;;;20.38;13.38;;;13.80;99.90;;;;;;5087279;28;20362;-74
2023/06/07 06:05:13;;;;;;;18.60;12.93;;;13.90;99.90;;;;;;5089901;28;20040;-73
2023/06/07 06:07:38;;;;;;;17.88;12.90;;;14.00;99.90;;;;;;5090279;28;20047;-71
2023/06/07 06:10:05;;;;;;;23.30;13.43;;;14.10;99.90;;;;;;5068230;28;20036;-72
2023/06/07 06:12:31;;;;;;;21.23;13.57;;;14.30;99.90;;;;;;5069962;28;20036;-74
2023/06/07 06:14:56;;;;;;;19.55;14.00;;;14.50;99.90;;;;;;5080349;28;20073;-71
2023/06/07 06:17:22;;;;;;;18.75;13.63;;;14.70;99.90;;;;;;5098696;28;20031;-75
2023/06/07 06:19:48;;;;;;;21.45;14.20;;;15.00;99.90;;;;;;5079960;28;20436;-77
2023/06/07 06:22:14;;;;;;;19.27;13.40;;;15.30;99.90;;;;;;5090131;28;20024;-72
2023/06/07 06:24:40;;;;;;;19.10;13.60;;;15.50;99.90;;;;;;5088448;28;20067;-73
2023/06/07 06:27:06;;;;;;;22.95;15.30;;;15.70;99.90;;;;;;5094758;28;20265;-76
2023/06/07 06:29:32;;;;;;;21.25;14.63;;;15.80;99.90;;;;;;5089706;28;20063;-71
2023/06/07 06:31:59;;;;;;;20.98;14.90;;;15.80;99.90;;;;;;5087033;28;20043;-71
2023/06/07 06:34:25;;;;;;;21.42;14.30;;;15.90;99.90;;;;;;5087113;28;20041;-70
2023/06/07 06:36:50;;;;;;;18.40;13.88;;;16.10;99.90;;;;;;5098859;28;20040;-72
2023/06/07 06:39:16;;;;;;;21.10;14.45;;;16.40;99.90;;;;;;5097224;28;20059;-70
2023/06/07 06:41:42;;;;;;;18.88;13.90;;;16.50;99.90;;;;;;5089795;28;20066;-71
2023/06/07 06:44:08;;;;;;;19.45;13.52;;;16.60;99.90;;;;;;5078882;28;20033;-74
2023/06/07 06:46:34;;;;;;;18.83;11.82;;;16.60;99.90;;;;;;5100460;28;20116;-71
2023/06/07 06:48:59;;;;;;;19.33;12.90;;;16.70;99.90;;;;;;5074683;28;20052;-73
2023/06/07 06:51:25;;;;;;;19.45;12.73;;;16.70;99.90;;;;;;5084745;28;20535;-73
2023/06/07 06:53:51;;;;;;;22.05;12.80;;;16.80;99.90;;;;;;5101218;28;20564;-73
2023/06/07 06:56:16;;;;;;;18.88;12.90;;;16.90;99.90;;;;;;5076359;28;20066;-74
2023/06/07 06:58:42;;;;;;;19.73;12.90;;;17.00;99.90;;;;;;5109798;28;20079;-71
2023/06/07 07:01:11;;;;;;;18.40;12.70;;;17.10;99.90;;;;;;5096819;28;20622;-73
2023/06/07 07:03:38;;;;;;;24.45;12.20;;;17.20;99.90;;;;;;5087660;28;20031;-71
2023/06/07 07:06:03;;;;;;;18.92;12.60;;;17.30;99.90;;;;;;5073908;28;20357;-75
2023/06/07 07:08:29;;;;;;;15.40;11.20;;;17.50;99.90;;;;;;5117071;27;20027;-76
2023/06/07 07:10:55;;;;;;;19.13;11.63;;;17.40;99.90;;;;;;5081569;28;20107;-70
2023/06/07 07:13:20;;;;;;;14.02;10.75;;;17.60;99.90;;;;;;5088253;28;20028;-74
2023/06/07 07:15:46;;;;;;;18.02;11.15;;;17.70;99.90;;;;;;5094197;28;20040;-78
2023/06/07 07:18:11;;;;;;;17.38;12.18;;;17.70;99.90;;;;;;5079514;28;20035;-76
2023/06/07 07:20:38;;;;;;;14.98;11.00;;;17.90;99.90;;;;;;5069254;28;20036;-73
2023/06/07 07:23:03;;;;;;;16.20;11.80;;;18.00;99.90;;;;;;5073622;28;20111;-71
2023/06/07 07:25:29;;;;;;;16.63;10.38;;;18.20;99.90;;;;;;5087909;28;20139;-71
2023/06/07 07:27:55;;;;;;;13.23;9.75;;;18.40;99.90;;;;;;5074464;28;20058;-78
2023/06/07 07:30:21;;;;;;;13.40;9.45;;;18.50;99.90;;;;;;5086019;28;20043;-75
2023/06/07 07:32:46;;;;;;;14.15;9.13;;;18.60;99.90;;;;;;5088297;28;20066;-74
2023/06/07 07:35:14;;;;;;;13.13;9.77;;;18.70;99.90;;;;;;5087891;28;20103;-73
2023/06/07 07:37:40;;;;;;;12.82;9.20;;;18.80;99.90;;;;;;5088947;28;20055;-75
2023/06/07 07:40:09;;;;;;;13.05;9.13;;;18.80;99.90;;;;;;5088047;28;20059;-82
2023/06/07 07:42:35;;;;;;;12.52;8.30;;;19.00;99.90;;;;;;5088549;28;20028;-80
2023/06/07 07:45:01;;;;;;;17.20;9.32;;;19.10;99.90;;;;;;5093792;28;20532;-77
2023/06/07 07:47:26;;;;;;;11.32;8.77;;;19.20;99.90;;;;;;5094369;28;20074;-78
2023/06/07 07:49:52;;;;;;;10.27;8.02;;;19.40;99.90;;;;;;5084167;28;20043;-78
2023/06/07 07:52:18;;;;;;;12.77;7.55;;;19.60;99.90;;;;;;5107466;28;20058;-72
2023/06/07 07:54:43;;;;;;;10.07;7.50;;;19.70;99.90;;;;;;5095151;28;20068;-71
2023/06/07 07:57:10;;;;;;;14.05;8.13;;;19.80;99.90;;;;;;5087645;28;20040;-71
2023/06/07 07:59:36;;;;;;;10.07;6.97;;;19.80;99.90;;;;;;5088593;28;20032;-73
2023/06/07 08:02:03;;;;;;;10.10;7.55;;;19.70;99.90;;;;;;5080741;28;20044;-73
2023/06/07 08:04:29;;;;;;;9.63;7.30;;;19.80;99.90;;;;;;5087443;28;20024;-73
2023/06/07 08:06:55;;;;;;;10.07;6.93;;;20.00;99.90;;;;;;5087823;28;20161;-79
2023/06/07 08:09:21;;;;;;;7.13;5.80;;;20.30;99.90;;;;;;5089978;28;20107;-71
2023/06/07 08:11:50;;;;;;;7.50;5.47;;;20.30;99.90;;;;;;5097019;28;20043;-72
2023/06/07 08:14:17;;;;;;;10.65;5.05;;;20.20;99.90;;;;;;5070748;28;20099;-74
2023/06/07 08:16:44;;;;;;;7.93;4.90;;;20.40;99.90;;;;;;5067999;28;20575;-75
2023/06/07 08:19:10;;;;;;;5.65;4.43;;;20.20;99.90;;;;;;5081846;28;20020;-74
2023/06/07 08:21:37;;;;;;;6.38;4.97;;;20.00;99.90;;;;;;5086422;28;20043;-74
2023/06/07 08:24:03;;;;;;;9.55;4.35;;;20.10;99.90;;;;;;5075305;28;20037;-74
2023/06/07 08:26:30;;;;;;;5.07;3.90;;;20.30;99.90;;;;;;5067928;28;20504;-74
2023/06/07 08:28:56;;;;;;;5.97;3.90;;;20.60;99.90;;;;;;5079895;28;20031;-78
2023/06/07 08:31:22;;;;;;;4.70;3.75;;;20.60;99.90;;;;;;5105940;28;20544;-72
2023/06/07 08:33:49;;;;;;;5.72;4.00;;;20.90;99.90;;;;;;5085913;28;20128;-75
2023/06/07 08:36:15;;;;;;;5.95;3.53;;;21.00;99.90;;;;;;5084976;28;20100;-72
2023/06/07 08:38:41;;;;;;;4.03;3.50;;;21.30;99.90;;;;;;5091033;28;20460;-73
2023/06/07 08:41:07;;;;;;;7.15;3.90;;;21.30;99.90;;;;;;5107844;28;20035;-72
2023/06/07 08:43:35;;;;;;;4.57;3.42;;;21.30;99.90;;;;;;5108397;28;20061;-71
2023/06/07 08:46:05;;;;;;;5.55;3.78;;;21.20;99.90;;;;;;5105876;28;20073;-72
2023/06/07 08:48:34;;;;;;;5.10;3.58;;;21.20;99.90;;;;;;5099199;28;20066;-75
2023/06/07 08:51:04;;;;;;;5.75;4.45;;;21.30;99.90;;;;;;5086649;28;20085;-73
2023/06/07 08:53:40;;;;;;;4.95;3.75;;;21.40;99.90;;;;;;5088665;28;20036;-72
2023/06/07 08:56:07;;;;;;;5.47;4.43;;;21.70;99.90;;;;;;5100269;28;20031;-72
2023/06/07 08:58:33;;;;;;;6.25;3.65;;;21.70;99.90;;;;;;5089527;28;20056;-75
2023/06/07 09:01:00;;;;;;;4.97;3.90;;;21.40;99.90;;;;;;5087967;28;20028;-80
2023/06/07 09:03:27;;;;;;;4.65;3.70;;;21.40;99.90;;;;;;5090349;28;20028;-73
2023/06/07 09:05:56;;;;;;;3.40;3.10;;;21.40;99.90;;;;;;5091077;28;20044;-74
2023/06/07 09:08:22;;;;;;;6.22;4.38;;;21.70;99.90;;;;;;5087464;28;20114;-76
2023/06/07 09:10:47;;;;;;;5.50;4.20;;;21.70;99.90;;;;;;5090269;28;20158;-75
2023/06/07 09:13:19;;;;;;;4.40;3.50;;;21.70;99.90;;;;;;5087673;28;20039;-72
2023/06/07 09:15:48;;;;;;;4.97;3.67;;;22.00;99.90;;;;;;5100139;28;20494;-73
2023/06/07 09:18:14;;;;;;;3.13;2.60;;;22.10;99.90;;;;;;5092405;28;20032;-71
2023/06/07 09:20:40;;;;;;;4.03;3.28;;;22.10;99.90;;;;;;5089595;28;20028;-73
2023/06/07 09:23:13;;;;;;;4.20;3.00;;;22.30;99.90;;;;;;5077599;28;20037;-73
2023/06/07 09:25:39;;;;;;;10.45;3.55;;;22.50;99.90;;;;;;5083427;28;20039;-74
2023/06/07 09:28:10;;;;;;;4.03;3.40;;;22.90;99.90;;;;;;5103320;28;20036;-72
2023/06/07 09:31:08;;;;;;;3.75;3.10;;;23.00;99.90;;;;;;5085713;28;20396;-72
2023/06/07 09:33:36;;;;;;;3.80;2.90;;;23.00;99.90;;;;;;5065289;28;20036;-73
2023/06/07 09:36:20;;;;;;;4.38;3.17;;;22.90;99.90;;;;;;5099325;28;20040;-80
2023/06/07 09:38:46;;;;;;;6.40;3.60;;;23.00;99.90;;;;;;5111207;28;20635;-73
2023/06/07 09:41:12;;;;;;;5.53;3.25;;;22.60;99.90;;;;;;5093941;28;20040;-72
2023/06/07 09:43:54;;;;;;;5.03;3.13;;;22.50;99.90;;;;;;5090919;28;20024;-73
2023/06/07 09:46:20;;;;;;;4.38;3.10;;;22.40;99.90;;;;;;5095545;28;20155;-74
2023/06/07 09:48:51;;;;;;;4.18;3.15;;;22.70;99.90;;;;;;5070360;28;20035;-75
2023/06/07 09:51:18;;;;;;;;;;;23.00;98.00;;;;;;5084607;28;20036;-73
2023/06/07 09:54:01;;;;;;;7.78;3.60;;;23.40;99.00;;;;;;5072266;28;19977;-75
2023/06/07 09:56:38;;;;;;;4.05;3.63;;;23.50;99.50;;;;;;5090349;28;20071;-77
2023/06/07 09:59:16;;;;;;;5.00;3.40;;;23.60;97.50;;;;;;5079163;28;20085;-73
2023/06/07 10:01:43;;;;;;;4.28;3.35;;;23.50;96.70;;;;;;5087467;28;20487;-77
2023/06/07 10:04:10;;;;;;;7.13;3.20;;;23.70;95.60;;;;;;5068945;28;20031;-74
2023/06/07 10:06:41;;;;;;;5.15;3.45;;;23.80;97.00;;;;;;5124143;27;20120;-76
2023/06/07 10:09:09;;;;;;;4.55;3.47;;;24.00;95.90;;;;;;5077660;28;20032;-75
2023/06/07 10:11:36;;;;;;;3.58;3.00;;;23.80;95.60;;;;;;5070703;28;20032;-74
2023/06/07 10:14:18;;;;;;;4.30;3.40;;;24.00;95.70;;;;;;5085361;28;20153;-79
2023/06/07 10:17:00;;;;;;;5.28;3.50;;;24.30;94.70;;;;;;5076576;28;20775;-77
2023/06/07 10:19:36;;;;;;;5.80;3.50;;;24.40;93.30;;;;;;5071353;28;20021;-75
2023/06/07 10:22:05;;;;;;;4.47;3.60;;;24.30;92.80;;;;;;5069513;28;20031;-77
2023/06/07 10:24:51;;;;;;;6.30;3.45;;;23.80;93.50;;;;;;5083881;28;20039;-76
2023/06/07 10:27:22;;;;;;;3.97;3.33;;;23.80;95.10;;;;;;5096330;28;20484;-74
2023/06/07 10:30:11;;;;;;;4.82;3.70;;;24.00;92.50;;;;;;5075489;28;20078;-80
2023/06/07 10:32:38;;;;;;;5.32;3.80;;;24.00;93.60;;;;;;5078821;28;20032;-74
2023/06/07 10:35:09;;;;;;;4.78;3.72;;;23.80;93.10;;;;;;5088337;28;20385;-78
2023/06/07 10:37:40;;;;;;;5.95;3.90;;;23.70;93.40;;;;;;5082864;28;20111;-76
2023/06/07 10:40:10;;;;;;;;;;;23.50;92.50;;;;;;5088121;28;20024;-77
2023/06/07 10:42:44;;;;;;;4.32;3.42;;;23.40;92.00;;;;;;5090114;28;20485;-75
2023/06/07 10:45:17;;;;;;;5.03;3.80;;;23.60;93.90;;;;;;5094329;28;20054;-72
2023/06/07 10:47:43;;;;;;;7.07;4.05;;;23.80;92.60;;;;;;5104652;27;20032;-78
2023/06/07 10:50:47;;;;;;;5.95;4.05;;;24.20;91.50;;;;;;5088459;28;20468;-75
2023/06/07 10:53:13;;;;;;;5.13;3.90;;;24.40;91.60;;;;;;5021624;28;20047;-74
2023/06/07 10:55:39;;;;;;;9.80;4.47;;;24.30;90.90;;;;;;5085421;28;20024;-75
2023/06/07 10:58:25;;;;;;;5.25;3.58;;;24.00;90.30;;;;;;5069467;28;20037;-75
2023/06/07 11:00:51;;;;;;;4.90;4.05;;;23.60;91.80;;;;;;5069253;28;20028;-74
2023/06/07 11:03:23;;;;;;;5.85;3.88;;;23.70;91.20;;;;;;5085789;28;20032;-73
2023/06/07 11:05:58;;;;;;;5.95;3.80;;;24.20;92.20;;;;;;5103808;27;20058;-71
2023/06/07 11:08:26;;;;;;;5.93;3.55;;;24.90;89.00;;;;;;5087223;28;20666;-78
2023/06/07 11:10:58;;;;;;;13.32;3.80;;;25.10;88.70;;;;;;5070230;28;20024;-72
2023/06/07 11:13:25;;;;;;;8.05;3.92;;;25.30;86.00;;;;;;5086540;28;20140;-73
2023/06/07 11:15:51;;;;;;;4.30;3.85;;;25.60;86.30;;;;;;5094827;28;20479;-75
2023/06/07 11:18:16;;;;;;;6.72;3.70;;;25.80;85.20;;;;;;5089804;28;20063;-72
2023/06/07 11:20:45;;;;;;;6.13;3.50;;;25.40;82.40;;;;;;5068693;28;20041;-73
2023/06/07 11:23:30;;;;;;;10.32;4.03;;;25.60;81.40;;;;;;5095023;28;20048;-75
2023/06/07 11:26:08;;;;;;;7.93;3.75;;;25.90;82.30;;;;;;5079764;28;20031;-75
2023/06/07 11:28:39;;;;;;;5.45;3.70;;;26.20;83.70;;;;;;5095980;28;20024;-73
2023/06/07 11:31:10;;;;;;;7.38;3.85;;;26.20;77.00;;;;;;5088645;28;20024;-73
2023/06/07 11:33:36;;;;;;;4.90;3.67;;;26.30;75.90;;;;;;5085473;28;20039;-71
2023/06/07 11:36:04;;;;;;;6.13;3.97;;;26.30;74.30;;;;;;5093878;28;20027;-70
2023/06/07 11:38:30;;;;;;;4.90;3.80;;;26.20;74.50;;;;;;5097399;28;20481;-70
2023/06/07 11:40:57;;;;;;;6.35;4.03;;;26.20;73.40;;;;;;5087374;28;20032;-73
2023/06/07 11:43:27;;;;;;;9.50;3.55;;;26.00;78.80;;;;;;5086532;28;20046;-72
2023/06/07 11:45:57;;;;;;;5.90;3.97;;;26.30;72.80;;;;;;5089797;28;20083;-72
2023/06/07 11:48:30;;;;;;;6.00;3.80;;;26.40;69.90;;;;;;5075469;28;20039;-73
2023/06/07 11:50:59;;;;;;;8.45;3.85;;;26.00;70.30;;;;;;5087671;28;20111;-75
2023/06/07 11:53:28;;;;;;;5.20;3.80;;;25.90;71.70;;;;;;5087964;28;20028;-76
2023/06/07 11:55:55;;;;;;;6.90;3.92;;;26.00;72.30;;;;;;5091301;28;20042;-73
2023/06/07 11:58:22;;;;;;;7.55;3.65;;;25.90;73.80;;;;;;5081109;28;20097;-74
2023/06/07 12:00:49;;;;;;;5.53;3.70;;;26.00;68.20;;;;;;5068326;28;20027;-73
2023/06/07 12:03:16;;;;;;;5.03;3.78;;;26.20;71.60;;;;;;5070985;28;20501;-75
2023/06/07 12:05:44;;;;;;;5.45;4.13;;;25.80;69.80;;;;;;5086729;28;20040;-72
2023/06/07 12:08:13;;;;;;;7.72;3.72;;;26.30;71.80;;;;;;5067270;28;20162;-77
2023/06/07 12:10:39;;;;;;;5.90;3.45;;;26.60;67.70;;;;;;5082726;28;20105;-71
2023/06/07 12:13:21;;;;;;;5.22;3.53;;;26.40;66.80;;;;;;5087909;28;20082;-77
2023/06/07 12:15:55;;;;;;;7.50;3.53;;;26.60;70.10;;;;;;5089555;28;20047;-74
2023/06/07 12:18:28;;;;;;;6.68;3.50;;;26.60;67.80;;;;;;5099313;28;20032;-74
2023/06/07 12:21:08;;;;;;;9.18;3.80;;;26.70;67.60;;;;;;5088613;28;20024;-71
2023/06/07 12:23:53;;;;;;;5.15;3.50;;;27.30;66.80;;;;;;5088114;28;20032;-74
2023/06/07 12:26:25;;;;;;;5.30;3.40;;;27.10;68.80;;;;;;5086133;28;20039;-75
2023/06/07 12:28:51;;;;;;;3.72;2.95;;;26.90;62.90;;;;;;5111287;28;20035;-74
2023/06/07 12:31:20;;;;;;;4.00;2.80;;;26.90;65.90;;;;;;5111944;28;20058;-76
2023/06/07 12:34:07;;;;;;;5.22;3.00;;;27.10;69.00;;;;;;5095882;28;20036;-72
2023/06/07 12:36:35;;;;;;;7.95;3.42;;;27.10;66.40;;;;;;5092583;28;20036;-71
2023/06/07 12:39:09;;;;;;;4.40;3.58;;;27.00;63.40;;;;;;5090697;28;20031;-72
2023/06/07 12:41:37;;;;;;;5.85;3.20;;;27.10;67.60;;;;;;5090731;28;20039;-74
2023/06/07 12:44:08;;;;;;;3.95;3.22;;;26.90;65.40;;;;;;5089790;28;20036;-76